Página principal
METAR-TAF:

METAR-TAF

Aeroportos :

Aeroporto Internacional do Cairo

Cairo, Egipto

latitude: 30-08N, longitude: 031-24E, altura: 64 m

Observação actual do tempo

O boletim foi feito há 32 minutos, às 12:00 UTC
Vento 8 kt de nor-noroeste
Temperatura 38°C
Humidade 20%
Pressão 1014 hPa
Visibilidade 10 km ou mais
sem nuvens abaixo de 1500 metros e sem cumulonimbus

METAR: HECA 231200Z 33008KT CAVOK 38/11 Q1014 NOSIG

Hora: 14:32 (12:32 UTC)

Previsão

O boletim foi feito há 1 hora e 32 minutos, às 11:00 UTC
Previsão válida de 23 às 12 UTC a 24 às 18 UTC
Vento 12 kt de nordeste
Visibilidade 10 km ou mais
sem nuvens abaixo de 1500 metros e sem cumulonimbus
Temporariamente
de 24 às 00 UTC a 24 às 09 UTC
Vento 3 kt com direcção variável
Visibilidade: 4000 m
bruma

TAF: HECA 231100Z 2312/2418 04012KT CAVOK TEMPO 2400/2409 VRB03KT 4000 HZ NSC

Observações e previsões do tempo de mais de 4000 aeroportos (mensagens METAR e TAF).

As estações disponíveis são os pontos amarelos e vermelhos sobre o mapa.

Mova o rato sobre o mapa para ver o nome da estação.

Depois clique no ponto para visualizar as observações e previsões meteorológicas.

Para alterar o mapa : clique nos botões verdes com uma cruz preta para aumentar o zoom; no botão verde com uma pitada de zoom; ou nas setas verdes para mapas adjacentes.


METAR-TAF: